createdAt,value
2018-09-18T00:01:19.139Z,100759.00
2018-09-18T00:03:48.382Z,100762.00
2018-09-18T00:06:17.505Z,100749.00
2018-09-18T00:08:46.754Z,100741.00
2018-09-18T00:11:15.869Z,100751.00
2018-09-18T00:13:44.903Z,100734.00
2018-09-18T00:16:13.912Z,100738.00
2018-09-18T00:18:42.980Z,100740.00
2018-09-18T00:21:11.999Z,100738.00
2018-09-18T00:23:41.007Z,100737.00
2018-09-18T00:26:10.050Z,100741.00
2018-09-18T00:28:39.094Z,100727.00
2018-09-18T00:31:08.387Z,100732.00
2018-09-18T00:33:37.406Z,100727.00
2018-09-18T00:36:06.441Z,100727.00
2018-09-18T00:38:35.494Z,100719.00
2018-09-18T00:41:04.541Z,100725.00
2018-09-18T00:43:33.582Z,100723.00
2018-09-18T00:46:02.676Z,100712.00
2018-09-18T00:48:31.723Z,100713.00
2018-09-18T00:51:00.857Z,100712.00
2018-09-18T00:53:29.860Z,100706.00
2018-09-18T00:55:58.985Z,100697.00
2018-09-18T00:58:28.166Z,100701.00
2018-09-18T01:00:57.236Z,100697.00
2018-09-18T01:03:26.405Z,100700.00
2018-09-18T01:05:55.484Z,100704.00
2018-09-18T01:08:24.595Z,100701.00
2018-09-18T01:10:53.625Z,100705.00
2018-09-18T01:13:22.704Z,100695.00
2018-09-18T01:15:51.757Z,100689.00
2018-09-18T01:18:20.817Z,100691.00
2018-09-18T01:20:49.890Z,100698.00
2018-09-18T01:23:19.065Z,100693.00
2018-09-18T01:25:48.082Z,100692.00
2018-09-18T01:28:17.145Z,100686.00
2018-09-18T01:30:46.265Z,100686.00
2018-09-18T01:33:15.318Z,100678.00
2018-09-18T01:35:44.383Z,100679.00
2018-09-18T01:38:13.390Z,100683.00
2018-09-18T01:40:42.420Z,100684.00
2018-09-18T01:43:12.093Z,100677.00
2018-09-18T01:45:41.151Z,100673.00
2018-09-18T01:48:10.268Z,100677.00
2018-09-18T01:50:39.313Z,100668.00
2018-09-18T01:53:08.311Z,100676.00
2018-09-18T01:55:37.413Z,100669.00
2018-09-18T01:58:06.495Z,100669.00
2018-09-18T02:00:35.982Z,100659.00
2018-09-18T02:03:05.053Z,100665.00
2018-09-18T02:05:34.127Z,100668.00
2018-09-18T02:08:03.225Z,100655.00
2018-09-18T02:10:32.280Z,100664.00
2018-09-18T02:13:01.315Z,100658.00
2018-09-18T02:15:30.342Z,100661.00
2018-09-18T02:17:59.356Z,100670.00
2018-09-18T02:20:28.383Z,100658.00
2018-09-18T02:22:57.414Z,100664.00
2018-09-18T02:25:26.444Z,100661.00
2018-09-18T02:27:55.573Z,100660.00
2018-09-18T02:30:24.636Z,100664.00
2018-09-18T02:32:53.696Z,100656.00
2018-09-18T02:35:22.784Z,100655.00
2018-09-18T02:37:51.883Z,100649.00
2018-09-18T02:40:20.935Z,100644.00
2018-09-18T02:42:49.986Z,100654.00
2018-09-18T02:45:19.022Z,100651.00
2018-09-18T02:47:48.084Z,100651.00
2018-09-18T02:50:17.142Z,100651.00
2018-09-18T02:52:46.293Z,100642.00
2018-09-18T02:55:15.429Z,100647.00
2018-09-18T02:57:44.528Z,100642.00
2018-09-18T03:00:13.578Z,100645.00
2018-09-18T03:02:42.671Z,100639.00
2018-09-18T03:05:11.748Z,100641.00
2018-09-18T03:07:41.906Z,100637.00
2018-09-18T03:10:11.024Z,100635.00
2018-09-18T03:12:40.050Z,100633.00
2018-09-18T03:15:09.061Z,100628.00
2018-09-18T03:17:38.106Z,100632.00
2018-09-18T03:20:07.162Z,100638.00
2018-09-18T03:22:36.257Z,100632.00
2018-09-18T03:25:05.481Z,100631.00
2018-09-18T03:27:34.546Z,100625.00
2018-09-18T03:30:03.922Z,100627.00
2018-09-18T03:32:33.549Z,100623.00
2018-09-18T03:35:02.587Z,100621.00
2018-09-18T03:37:31.690Z,100619.00
2018-09-18T03:40:00.712Z,100614.00
2018-09-18T03:42:29.760Z,100615.00
2018-09-18T03:44:58.789Z,100615.00
2018-09-18T03:47:27.881Z,100610.00
2018-09-18T03:49:56.909Z,100610.00
2018-09-18T03:52:26.021Z,100608.00
2018-09-18T03:54:55.187Z,100611.00
2018-09-18T03:57:24.374Z,100614.00
2018-09-18T03:59:53.471Z,100604.00
2018-09-18T04:02:22.611Z,100598.00
2018-09-18T04:04:51.629Z,100597.00
2018-09-18T04:07:20.728Z,100599.00
2018-09-18T04:09:49.732Z,100596.00
2018-09-18T04:12:18.791Z,100591.00
2018-09-18T04:14:47.839Z,100587.00
2018-09-18T04:17:16.944Z,100590.00
2018-09-18T04:19:46.011Z,100589.00
2018-09-18T04:22:15.078Z,100583.00
2018-09-18T04:24:44.137Z,100581.00
2018-09-18T04:27:13.195Z,100580.00
2018-09-18T04:29:42.234Z,100581.00
2018-09-18T04:32:11.297Z,100580.00
2018-09-18T04:34:40.363Z,100578.00
2018-09-18T04:37:09.408Z,100579.00
2018-09-18T04:39:38.658Z,100573.00
2018-09-18T04:42:07.740Z,100564.00
2018-09-18T04:44:36.761Z,100560.00
2018-09-18T04:47:05.992Z,100575.00
2018-09-18T04:49:35.460Z,100568.00
2018-09-18T04:52:04.893Z,100562.00
2018-09-18T04:54:33.993Z,100556.00
2018-09-18T04:57:03.161Z,100555.00
2018-09-18T04:59:32.546Z,100559.00
2018-09-18T05:02:01.707Z,100562.00
2018-09-18T05:04:30.826Z,100550.00
2018-09-18T05:07:00.146Z,100565.00
2018-09-18T05:09:29.218Z,100565.00
2018-09-18T05:11:58.246Z,100567.00
2018-09-18T05:14:27.265Z,100570.00
2018-09-18T05:16:56.325Z,100562.00
2018-09-18T05:19:25.444Z,100565.00
2018-09-18T05:21:54.609Z,100567.00
2018-09-18T05:24:23.667Z,100565.00
2018-09-18T05:26:52.702Z,100569.00
2018-09-18T05:29:21.738Z,100571.00
2018-09-18T05:31:50.782Z,100566.00
2018-09-18T05:34:19.954Z,100567.00
2018-09-18T05:36:48.996Z,100561.00
2018-09-18T05:39:18.068Z,100566.00
2018-09-18T05:41:47.177Z,100571.00
2018-09-18T05:44:16.250Z,100567.00
2018-09-18T05:46:45.271Z,100564.00
2018-09-18T05:49:14.357Z,100569.00
2018-09-18T05:51:43.479Z,100566.00
2018-09-18T05:54:12.594Z,100573.00
2018-09-18T05:56:41.946Z,100565.00
2018-09-18T05:59:11.086Z,100563.00
2018-09-18T06:01:40.220Z,100557.00
2018-09-18T06:04:09.322Z,100561.00
2018-09-18T06:06:38.416Z,100561.00
2018-09-18T06:09:10.030Z,100562.00
2018-09-18T06:11:39.125Z,100561.00
2018-09-18T06:14:08.232Z,100560.00
2018-09-18T06:16:37.274Z,100563.00
2018-09-18T06:19:08.293Z,100557.00
2018-09-18T06:21:37.503Z,100559.00
2018-09-18T06:24:06.595Z,100551.00
2018-09-18T06:26:35.878Z,100550.00
2018-09-18T06:29:05.019Z,100554.00
2018-09-18T06:31:34.056Z,100550.00
2018-09-18T06:34:03.133Z,100552.00
2018-09-18T06:36:32.220Z,100550.00
2018-09-18T06:39:01.340Z,100557.00
2018-09-18T06:41:30.390Z,100549.00
2018-09-18T06:43:59.482Z,100548.00
2018-09-18T06:46:28.556Z,100547.00
2018-09-18T06:48:57.689Z,100543.00
2018-09-18T06:51:28.983Z,100546.00
2018-09-18T06:53:58.133Z,100547.00
2018-09-18T06:56:28.080Z,100549.00
2018-09-18T06:58:57.134Z,100534.00
2018-09-18T07:01:26.499Z,100452.00
2018-09-18T07:03:56.084Z,100547.00
2018-09-18T07:06:26.266Z,100544.00
2018-09-18T07:08:55.924Z,100542.00
2018-09-18T07:11:25.553Z,100534.00
2018-09-18T07:13:54.820Z,100536.00
2018-09-18T07:16:24.695Z,100535.00
2018-09-18T07:18:54.125Z,100529.00
2018-09-18T07:21:23.362Z,100527.00
2018-09-18T07:23:53.301Z,100525.00
2018-09-18T07:26:23.414Z,100520.00
2018-09-18T07:28:52.600Z,100522.00
2018-09-18T07:31:21.900Z,100519.00
2018-09-18T07:33:52.290Z,100517.00
2018-09-18T07:36:21.412Z,100521.00
2018-09-18T07:38:50.620Z,100523.00
2018-09-18T07:41:19.791Z,100518.00
2018-09-18T07:43:49.121Z,100517.00
2018-09-18T07:46:20.157Z,100526.00
2018-09-18T07:48:49.656Z,100514.00
2018-09-18T07:54:01.472Z,100517.00
2018-09-18T07:56:32.701Z,100523.00
2018-09-18T07:59:04.076Z,100525.00
2018-09-18T08:01:34.443Z,100512.00
2018-09-18T08:04:04.166Z,100510.00
2018-09-18T08:06:33.995Z,100509.00
2018-09-18T08:09:04.079Z,100510.00
2018-09-18T08:11:34.889Z,100510.00
2018-09-18T08:14:04.333Z,100509.00
2018-09-18T08:16:34.580Z,100535.00
2018-09-18T08:19:04.704Z,100511.00
2018-09-18T08:21:34.338Z,100531.00
2018-09-18T08:24:04.275Z,100502.00
2018-09-18T08:26:33.946Z,100502.00
2018-09-18T08:29:12.253Z,100508.00
2018-09-18T08:31:43.449Z,100499.00
2018-09-18T08:34:19.395Z,100504.00
2018-09-18T08:36:48.792Z,100501.00
2018-09-18T08:39:18.327Z,100505.00
2018-09-18T08:42:16.352Z,100506.00
2018-09-18T08:44:54.740Z,100500.00
2018-09-18T08:47:23.902Z,100499.00
2018-09-18T08:49:54.444Z,100492.00
2018-09-18T08:52:25.592Z,100498.00
2018-09-18T08:54:55.036Z,100495.00
2018-09-18T08:57:24.637Z,100501.00
2018-09-18T08:59:54.147Z,100499.00
2018-09-18T09:05:10.190Z,100484.00
2018-09-18T09:07:42.674Z,100491.00
2018-09-18T09:10:11.871Z,100484.00
2018-09-18T09:12:41.091Z,100481.00
2018-09-18T09:15:10.662Z,100478.00
2018-09-18T09:17:39.709Z,100461.00
2018-09-18T09:20:08.976Z,100461.00
2018-09-18T09:22:38.713Z,100455.00
2018-09-18T09:25:07.773Z,100444.00
2018-09-18T09:27:37.033Z,100452.00
2018-09-18T09:30:06.157Z,100447.00
2018-09-18T09:32:35.206Z,100440.00
2018-09-18T09:35:04.344Z,100442.00
2018-09-18T09:37:34.009Z,100444.00
2018-09-18T09:40:43.698Z,100437.00
2018-09-18T09:43:12.790Z,100432.00
2018-09-18T09:46:02.832Z,100430.00
2018-09-18T09:49:00.063Z,100434.00
2018-09-18T09:51:45.221Z,100430.00
2018-09-18T09:54:45.781Z,100427.00
2018-09-18T09:57:15.836Z,100429.00
2018-09-18T09:59:46.919Z,100424.00
2018-09-18T10:02:17.719Z,100421.00
2018-09-18T10:04:47.468Z,100419.00
2018-09-18T10:07:16.822Z,100423.00
2018-09-18T10:09:46.036Z,100421.00
2018-09-18T10:12:19.930Z,100415.00
2018-09-18T10:14:49.577Z,100408.00
2018-09-18T10:17:19.661Z,100408.00
2018-09-18T10:19:55.282Z,100403.00
2018-09-18T10:22:24.690Z,100404.00
2018-09-18T10:24:53.955Z,100398.00
2018-09-18T10:27:22.956Z,100402.00
2018-09-18T10:29:52.133Z,100399.00
2018-09-18T10:32:21.183Z,100391.00
2018-09-18T10:34:51.717Z,100389.00
2018-09-18T10:37:20.972Z,100382.00
2018-09-18T10:39:50.092Z,100380.00
2018-09-18T10:42:19.218Z,100379.00
2018-09-18T10:44:48.322Z,100375.00
2018-09-18T10:47:18.500Z,100362.00
2018-09-18T10:49:47.569Z,100367.00
2018-09-18T10:52:16.722Z,100362.00
2018-09-18T10:54:45.753Z,100357.00
2018-09-18T10:57:14.924Z,100355.00
2018-09-18T10:59:44.205Z,100353.00
2018-09-18T11:02:13.795Z,100345.00
2018-09-18T11:04:42.700Z,100347.00
2018-09-18T11:07:11.916Z,100342.00
2018-09-18T11:09:40.976Z,100341.00
2018-09-18T11:12:10.007Z,100336.00
2018-09-18T11:14:39.835Z,100336.00
2018-09-18T11:17:08.947Z,100338.00
2018-09-18T11:19:38.027Z,100343.00
2018-09-18T11:22:07.255Z,100335.00
2018-09-18T11:24:36.296Z,100337.00
2018-09-18T11:27:05.392Z,100340.00
2018-09-18T11:29:34.483Z,100333.00
2018-09-18T11:32:04.337Z,100330.00
2018-09-18T11:34:33.472Z,100324.00
2018-09-18T11:37:02.608Z,100323.00
2018-09-18T11:39:31.683Z,100313.00
2018-09-18T11:42:00.827Z,100310.00
2018-09-18T11:44:30.173Z,100307.00
2018-09-18T11:46:59.353Z,100303.00
2018-09-18T11:49:28.417Z,100296.00
2018-09-18T11:51:57.466Z,100290.00
2018-09-18T11:54:26.769Z,100286.00
2018-09-18T11:56:56.878Z,100285.00
2018-09-18T11:59:26.097Z,100283.00
2018-09-18T12:01:55.193Z,100273.00
2018-09-18T12:04:24.410Z,100280.00
2018-09-18T12:06:53.513Z,100276.00
2018-09-18T12:09:22.630Z,100278.00
2018-09-18T12:11:51.823Z,100272.00
2018-09-18T12:14:20.913Z,100280.00
2018-09-18T12:16:49.966Z,100275.00
2018-09-18T12:19:19.134Z,100267.00
2018-09-18T12:21:48.191Z,100266.00
2018-09-18T12:24:17.502Z,100275.00
2018-09-18T12:26:46.544Z,100260.00
2018-09-18T12:29:15.695Z,100261.00
2018-09-18T12:31:44.827Z,100258.00
2018-09-18T12:34:14.919Z,100254.00
2018-09-18T12:36:44.313Z,100251.00
2018-09-18T12:39:13.383Z,100241.00
2018-09-18T12:41:42.460Z,100245.00
2018-09-18T12:44:11.741Z,100247.00
2018-09-18T12:46:41.183Z,100243.00
2018-09-18T12:49:10.458Z,100248.00
2018-09-18T12:51:39.523Z,100246.00
2018-09-18T12:54:08.750Z,100240.00
2018-09-18T12:56:37.777Z,100237.00
2018-09-18T12:59:07.353Z,100229.00
2018-09-18T13:01:36.602Z,100233.00
2018-09-18T13:04:05.826Z,100230.00
2018-09-18T13:06:34.956Z,100243.00
2018-09-18T13:09:04.794Z,100242.00
2018-09-18T13:11:34.153Z,100232.00
2018-09-18T13:14:03.352Z,100227.00
2018-09-18T13:16:32.425Z,100219.00
2018-09-18T13:19:01.824Z,100233.00
2018-09-18T13:21:31.210Z,100232.00
2018-09-18T13:24:00.529Z,100228.00
2018-09-18T13:26:29.819Z,100220.00
2018-09-18T13:28:59.261Z,100222.00
2018-09-18T13:31:29.355Z,100216.00
2018-09-18T13:33:58.695Z,100219.00
2018-09-18T13:36:28.151Z,100211.00
2018-09-18T13:38:57.462Z,100214.00
2018-09-18T13:41:27.316Z,100208.00
2018-09-18T13:43:56.625Z,100207.00
2018-09-18T13:46:25.909Z,100202.00
2018-09-18T13:48:55.211Z,100194.00
2018-09-18T13:51:24.416Z,100195.00
2018-09-18T13:53:53.825Z,100189.00
2018-09-18T13:56:23.033Z,100182.00
2018-09-18T13:58:52.042Z,100180.00
2018-09-18T14:01:21.200Z,100183.00
2018-09-18T14:03:50.318Z,100179.00
2018-09-18T14:06:19.479Z,100181.00
2018-09-18T14:08:48.565Z,100174.00
2018-09-18T14:11:17.700Z,100176.00
2018-09-18T14:13:46.874Z,100183.00
2018-09-18T14:16:15.974Z,100172.00
2018-09-18T14:18:45.075Z,100174.00
2018-09-18T14:21:14.209Z,100162.00
2018-09-18T14:23:43.346Z,100171.00
2018-09-18T14:26:12.604Z,100169.00
2018-09-18T14:28:41.814Z,100163.00
2018-09-18T14:31:11.121Z,100159.00
2018-09-18T14:33:40.247Z,100154.00
2018-09-18T14:36:09.407Z,100168.00
2018-09-18T14:38:38.469Z,100165.00
2018-09-18T14:41:07.739Z,100154.00
2018-09-18T14:43:37.146Z,100159.00
2018-09-18T14:46:06.521Z,100156.00
2018-09-18T14:48:36.358Z,100158.00
2018-09-18T14:51:05.591Z,100157.00
2018-09-18T14:53:34.736Z,100157.00
2018-09-18T14:56:03.815Z,100165.00
2018-09-18T14:58:32.922Z,100156.00
2018-09-18T15:01:02.971Z,100155.00
2018-09-18T15:03:32.150Z,100150.00
2018-09-18T15:06:01.197Z,100139.00
2018-09-18T15:08:31.162Z,100145.00
2018-09-18T15:11:00.334Z,100143.00
2018-09-18T15:13:29.440Z,100142.00
2018-09-18T15:16:00.347Z,100147.00
2018-09-18T15:18:29.459Z,100142.00
2018-09-18T15:20:58.617Z,100139.00
2018-09-18T15:23:27.683Z,100142.00
2018-09-18T15:25:56.774Z,100140.00
2018-09-18T15:28:25.966Z,100144.00
2018-09-18T15:30:55.019Z,100147.00
2018-09-18T15:33:24.181Z,100154.00
2018-09-18T15:35:53.291Z,100145.00
2018-09-18T15:38:22.359Z,100155.00
2018-09-18T15:40:51.511Z,100150.00
2018-09-18T15:43:20.682Z,100153.00
2018-09-18T15:45:49.911Z,100150.00
2018-09-18T15:48:19.126Z,100147.00
2018-09-18T15:50:48.551Z,100146.00
2018-09-18T15:53:17.849Z,100151.00
2018-09-18T15:55:47.009Z,100145.00
2018-09-18T15:58:16.737Z,100157.00
2018-09-18T16:00:45.861Z,100149.00
2018-09-18T16:03:15.041Z,100147.00
2018-09-18T16:05:44.090Z,100147.00
2018-09-18T16:08:13.265Z,100147.00
2018-09-18T16:10:42.389Z,100149.00
2018-09-18T16:13:11.456Z,100150.00
2018-09-18T16:15:40.662Z,100157.00
2018-09-18T16:18:09.823Z,100155.00
2018-09-18T16:20:38.866Z,100158.00
2018-09-18T16:23:08.046Z,100157.00
2018-09-18T16:25:37.119Z,100164.00
2018-09-18T16:28:13.047Z,100160.00
2018-09-18T16:30:42.187Z,100161.00
2018-09-18T16:33:11.961Z,100167.00
2018-09-18T16:35:41.035Z,100169.00
2018-09-18T16:38:10.261Z,100165.00
2018-09-18T16:40:39.389Z,100175.00
2018-09-18T16:43:08.416Z,100176.00
2018-09-18T16:45:37.482Z,100169.00
2018-09-18T16:48:06.575Z,100170.00
2018-09-18T16:50:35.808Z,100175.00
2018-09-18T16:53:04.902Z,100184.00
2018-09-18T16:55:34.005Z,100185.00
2018-09-18T16:58:03.360Z,100188.00
2018-09-18T17:00:33.457Z,100192.00
2018-09-18T17:03:02.737Z,100199.00
2018-09-18T17:05:32.441Z,100202.00
2018-09-18T17:08:01.633Z,100205.00
2018-09-18T17:10:34.661Z,100214.00
2018-09-18T17:13:04.140Z,100210.00
2018-09-18T17:15:33.473Z,100223.00
2018-09-18T17:18:02.701Z,100237.00
2018-09-18T17:20:32.444Z,100248.00
2018-09-18T17:23:59.825Z,100275.00
2018-09-18T17:26:33.277Z,100276.00
2018-09-18T17:29:04.061Z,100284.00
2018-09-18T17:31:33.891Z,100289.00
2018-09-18T17:34:36.660Z,100293.00
2018-09-18T17:37:06.157Z,100301.00
2018-09-18T17:39:37.385Z,100305.00
2018-09-18T17:42:08.887Z,100318.00
2018-09-18T17:44:38.986Z,100330.00
2018-09-18T17:47:08.245Z,100333.00
2018-09-18T17:49:39.126Z,100335.00
2018-09-18T17:52:08.446Z,100338.00
2018-09-18T17:54:39.492Z,100351.00
2018-09-18T17:57:41.068Z,100354.00
2018-09-18T18:00:32.735Z,100361.00
2018-09-18T18:03:05.501Z,100366.00
2018-09-18T18:05:35.097Z,100363.00
2018-09-18T18:08:04.183Z,100381.00
2018-09-18T18:10:33.428Z,100385.00
2018-09-18T18:13:02.589Z,100398.00
2018-09-18T18:15:31.732Z,100394.00
2018-09-18T18:18:00.904Z,100420.00
2018-09-18T18:20:31.448Z,100415.00
2018-09-18T18:23:01.453Z,100414.00
2018-09-18T18:25:34.192Z,100419.00
2018-09-18T18:28:03.385Z,100416.00
2018-09-18T18:30:32.742Z,100418.00
2018-09-18T18:33:01.912Z,100432.00
2018-09-18T18:35:32.089Z,100432.00
2018-09-18T18:38:06.205Z,100437.00
2018-09-18T18:40:35.348Z,100440.00
2018-09-18T18:43:04.555Z,100440.00
2018-09-18T18:45:39.478Z,100456.00
2018-09-18T18:48:08.799Z,100466.00
2018-09-18T18:50:45.672Z,100460.00
2018-09-18T18:56:42.292Z,100483.00
2018-09-18T18:59:17.558Z,100480.00
2018-09-18T19:01:59.591Z,100488.00
2018-09-18T19:04:29.194Z,100498.00
2018-09-18T19:07:19.640Z,100494.00
2018-09-18T19:09:49.171Z,100495.00
2018-09-18T19:12:18.699Z,100496.00
2018-09-18T19:14:49.800Z,100503.00
2018-09-18T19:17:20.577Z,100505.00
2018-09-18T19:19:52.678Z,100501.00
2018-09-18T19:22:22.174Z,100524.00
2018-09-18T19:24:51.580Z,100512.00
2018-09-18T19:27:21.222Z,100520.00
2018-09-18T19:29:51.638Z,100527.00
2018-09-18T19:32:21.363Z,100533.00
2018-09-18T19:34:50.671Z,100523.00
2018-09-18T19:37:20.301Z,100534.00
2018-09-18T19:39:51.271Z,100538.00
2018-09-18T19:42:27.430Z,100547.00
2018-09-18T19:44:57.041Z,100540.00
2018-09-18T19:47:26.265Z,100549.00
2018-09-18T19:49:55.451Z,100560.00
2018-09-18T19:52:25.650Z,100561.00
2018-09-18T19:55:01.279Z,100559.00
2018-09-18T19:57:33.623Z,100566.00
2018-09-18T20:00:03.039Z,100565.00
2018-09-18T20:02:33.013Z,100561.00
2018-09-18T20:05:02.302Z,100568.00
2018-09-18T20:07:31.668Z,100565.00
2018-09-18T20:10:01.488Z,100568.00
2018-09-18T20:12:31.065Z,100586.00
2018-09-18T20:15:01.340Z,100568.00
2018-09-18T20:17:30.629Z,100577.00
2018-09-18T20:19:59.996Z,100590.00
2018-09-18T20:22:30.918Z,100580.00
2018-09-18T20:25:01.538Z,100587.00
2018-09-18T20:27:31.317Z,100593.00
2018-09-18T20:30:02.020Z,100582.00
2018-09-18T20:32:31.510Z,100594.00
2018-09-18T20:35:00.939Z,100595.00
2018-09-18T20:37:30.708Z,100597.00
2018-09-18T20:40:00.064Z,100596.00
2018-09-18T20:42:29.288Z,100609.00
2018-09-18T20:44:59.209Z,100609.00
2018-09-18T20:47:31.279Z,100608.00
2018-09-18T20:50:02.388Z,100613.00
2018-09-18T20:52:32.264Z,100614.00
2018-09-18T20:55:01.511Z,100610.00
2018-09-18T20:57:30.652Z,100599.00
2018-09-18T20:59:59.916Z,100610.00
2018-09-18T21:02:36.136Z,100621.00
2018-09-18T21:05:08.792Z,100622.00
2018-09-18T21:07:38.260Z,100616.00
2018-09-18T21:10:08.144Z,100619.00
2018-09-18T21:12:37.339Z,100632.00
2018-09-18T21:15:07.273Z,100622.00
2018-09-18T21:17:42.387Z,100621.00
2018-09-18T21:20:13.003Z,100611.00
2018-09-18T21:22:47.591Z,100618.00
2018-09-18T21:25:20.673Z,100624.00
2018-09-18T21:27:49.745Z,100625.00
2018-09-18T21:30:18.917Z,100629.00
2018-09-18T21:32:48.137Z,100630.00
2018-09-18T21:35:17.640Z,100634.00
2018-09-18T21:37:47.239Z,100631.00
2018-09-18T21:40:16.468Z,100639.00
2018-09-18T21:42:45.722Z,100638.00
2018-09-18T21:45:14.877Z,100641.00
2018-09-18T21:47:44.801Z,100637.00
2018-09-18T21:50:14.070Z,100638.00
2018-09-18T21:52:46.642Z,100642.00
2018-09-18T21:55:17.476Z,100648.00
2018-09-18T21:57:52.875Z,100641.00
2018-09-18T22:00:32.062Z,100653.00
2018-09-18T22:03:04.197Z,100645.00
2018-09-18T22:05:53.239Z,100649.00
2018-09-18T22:08:48.857Z,100652.00
2018-09-18T22:12:00.981Z,100658.00
2018-09-18T22:14:30.246Z,100653.00
2018-09-18T22:17:00.042Z,100658.00
2018-09-18T22:19:29.751Z,100657.00
2018-09-18T22:21:59.099Z,100655.00
2018-09-18T22:24:28.353Z,100659.00
2018-09-18T22:26:57.542Z,100660.00
2018-09-18T22:29:27.753Z,100662.00
2018-09-18T22:31:57.614Z,100659.00
2018-09-18T22:34:27.015Z,100660.00
2018-09-18T22:36:57.110Z,100665.00
2018-09-18T22:39:27.519Z,100665.00
2018-09-18T22:41:57.905Z,100658.00
2018-09-18T22:44:27.247Z,100654.00
2018-09-18T22:46:58.106Z,100662.00
2018-09-18T22:49:27.708Z,100662.00
2018-09-18T22:51:57.173Z,100661.00
2018-09-18T22:54:26.677Z,100661.00
2018-09-18T22:56:56.023Z,100665.00
2018-09-18T22:59:25.489Z,100662.00
2018-09-18T23:01:54.789Z,100663.00
2018-09-18T23:04:24.071Z,100669.00
2018-09-18T23:06:53.292Z,100676.00
2018-09-18T23:09:22.519Z,100672.00
2018-09-18T23:11:51.645Z,100672.00
2018-09-18T23:14:20.803Z,100672.00
2018-09-18T23:16:49.932Z,100670.00
2018-09-18T23:19:19.331Z,100681.00
2018-09-18T23:21:48.457Z,100675.00
2018-09-18T23:24:17.637Z,100678.00
2018-09-18T23:26:46.842Z,100672.00
2018-09-18T23:29:15.992Z,100672.00
2018-09-18T23:31:45.191Z,100670.00
2018-09-18T23:34:14.480Z,100673.00
2018-09-18T23:36:43.523Z,100672.00
2018-09-18T23:39:12.644Z,100660.00
2018-09-18T23:41:41.859Z,100666.00
2018-09-18T23:44:10.920Z,100669.00
2018-09-18T23:46:40.043Z,100673.00
2018-09-18T23:49:09.258Z,100669.00
2018-09-18T23:51:38.745Z,100674.00
2018-09-18T23:54:08.101Z,100675.00
2018-09-18T23:56:37.353Z,100676.00
2018-09-18T23:59:06.799Z,100672.00
